createdAt,value
2023-02-11T00:01:20.283Z,14.00
2023-02-11T00:06:23.136Z,14.00
2023-02-11T00:11:30.261Z,12.80
2023-02-11T00:16:33.118Z,11.80
2023-02-11T00:21:35.981Z,14.00
2023-02-11T00:26:40.173Z,13.80
2023-02-11T00:31:43.209Z,13.20
2023-02-11T00:36:46.222Z,13.00
2023-02-11T00:41:52.151Z,12.80
2023-02-11T00:46:54.926Z,11.40
2023-02-11T00:51:57.710Z,13.00
2023-02-11T00:57:01.810Z,12.40
2023-02-11T01:02:04.690Z,11.00
2023-02-11T01:07:07.458Z,11.00
2023-02-11T01:12:11.649Z,12.40
2023-02-11T01:17:16.878Z,11.20
2023-02-11T01:22:19.687Z,10.80
2023-02-11T01:27:24.762Z,12.20
2023-02-11T01:32:27.638Z,10.60
2023-02-11T01:37:30.424Z,10.00
2023-02-11T01:42:34.864Z,10.40
2023-02-11T01:47:37.699Z,10.20
2023-02-11T01:52:40.568Z,10.00
2023-02-11T01:57:46.673Z,10.80
2023-02-11T02:02:52.306Z,10.60
2023-02-11T02:07:59.987Z,10.00
2023-02-11T02:13:05.142Z,10.00
2023-02-11T02:18:14.164Z,10.20
2023-02-11T02:23:34.242Z,10.20
2023-02-11T02:28:47.860Z,10.40
2023-02-11T02:33:54.410Z,10.00
2023-02-11T02:38:58.942Z,10.00
2023-02-11T02:44:01.790Z,10.60
2023-02-11T02:49:07.774Z,10.00
2023-02-11T02:54:37.888Z,9.20
2023-02-11T02:59:45.377Z,9.40
2023-02-11T03:04:51.284Z,9.00
2023-02-11T03:09:56.418Z,9.00
2023-02-11T03:14:59.399Z,8.80
2023-02-11T03:20:04.216Z,8.60
2023-02-11T03:25:07.754Z,9.00
2023-02-11T03:30:12.468Z,8.80
2023-02-11T03:35:17.886Z,9.20
2023-02-11T03:40:21.499Z,8.60
2023-02-11T03:45:24.859Z,10.60
2023-02-11T03:50:29.074Z,9.40
2023-02-11T03:55:32.037Z,9.40
2023-02-11T04:00:36.622Z,8.60
2023-02-11T04:05:40.819Z,8.60
2023-02-11T04:10:43.550Z,6.80
2023-02-11T04:15:48.807Z,7.00
2023-02-11T04:20:53.273Z,9.00
2023-02-11T04:25:56.058Z,7.80
2023-02-11T04:30:58.921Z,7.00
2023-02-11T04:36:03.104Z,8.60
2023-02-11T04:41:06.204Z,6.20
2023-02-11T04:46:09.092Z,7.00
2023-02-11T04:51:13.453Z,7.40
2023-02-11T04:56:16.241Z,6.40
2023-02-11T05:01:19.104Z,6.80
2023-02-11T05:06:23.407Z,7.00
2023-02-11T05:11:26.408Z,8.20
2023-02-11T05:16:29.241Z,7.00
2023-02-11T05:21:33.470Z,6.40
2023-02-11T05:26:36.294Z,6.20
2023-02-11T05:31:39.116Z,6.20
2023-02-11T05:36:43.283Z,6.00
2023-02-11T05:41:46.307Z,6.60
2023-02-11T05:46:49.523Z,7.00
2023-02-11T05:51:53.689Z,6.20
2023-02-11T05:56:56.500Z,7.00
2023-02-11T06:01:59.259Z,7.00
2023-02-11T06:07:03.515Z,6.20
2023-02-11T06:12:06.543Z,6.00
2023-02-11T06:17:09.550Z,6.00
2023-02-11T06:22:13.825Z,6.80
2023-02-11T06:27:17.410Z,5.80
2023-02-11T06:32:42.372Z,6.00
2023-02-11T06:37:45.105Z,6.20
2023-02-11T06:42:48.040Z,6.60
2023-02-11T06:47:52.323Z,6.00
2023-02-11T06:52:56.505Z,6.40
2023-02-11T06:57:59.327Z,6.80
2023-02-11T07:03:02.565Z,6.40
2023-02-11T07:08:06.947Z,7.00
2023-02-11T07:13:09.766Z,7.00
2023-02-11T07:18:14.622Z,7.80
2023-02-11T07:23:18.891Z,7.00
2023-02-11T07:28:21.814Z,7.00
2023-02-11T07:33:24.860Z,7.80
2023-02-11T07:38:29.097Z,7.00
2023-02-11T07:43:31.993Z,7.00
2023-02-11T07:48:34.883Z,6.00
2023-02-11T07:53:39.148Z,6.80
2023-02-11T07:58:42.357Z,7.00
2023-02-11T08:03:45.268Z,9.00
2023-02-11T08:08:49.583Z,10.00
2023-02-11T08:13:53.233Z,14.00
2023-02-11T08:18:57.405Z,13.00
2023-02-11T08:24:02.333Z,16.25
2023-02-11T08:29:07.789Z,18.25
2023-02-11T08:34:11.491Z,20.00
2023-02-11T08:39:19.771Z,20.00
2023-02-11T08:44:23.478Z,23.00
2023-02-11T08:49:26.230Z,20.75
2023-02-11T08:54:30.423Z,18.25
2023-02-11T08:59:33.456Z,18.00
2023-02-11T09:04:36.242Z,15.00
2023-02-11T09:09:40.620Z,14.00
2023-02-11T09:14:43.490Z,14.20
2023-02-11T09:19:46.290Z,13.00
2023-02-11T09:24:50.454Z,13.60
2023-02-11T09:29:53.278Z,13.40
2023-02-11T09:34:56.026Z,13.80
2023-02-11T09:40:00.234Z,11.00
2023-02-11T09:45:03.779Z,11.00
2023-02-11T09:50:07.835Z,11.60
2023-02-11T09:55:18.528Z,10.20
2023-02-11T10:00:23.747Z,10.20
2023-02-11T10:05:33.502Z,11.00
2023-02-11T10:10:42.856Z,10.00
2023-02-11T10:15:46.718Z,10.80
2023-02-11T10:21:01.868Z,8.00
2023-02-11T10:26:11.720Z,8.80
2023-02-11T10:31:16.490Z,7.60
2023-02-11T10:36:20.029Z,9.60
2023-02-11T10:41:27.448Z,8.00
2023-02-11T10:46:32.286Z,9.20
2023-02-11T10:51:35.353Z,6.80
2023-02-11T10:56:41.470Z,8.00
2023-02-11T11:01:47.117Z,8.00
2023-02-11T11:06:49.949Z,8.00
2023-02-11T11:11:54.605Z,7.00
2023-02-11T11:16:57.749Z,7.00
2023-02-11T11:22:00.510Z,8.80
2023-02-11T11:27:05.204Z,9.60
2023-02-11T11:32:12.288Z,8.00
2023-02-11T11:37:19.371Z,8.00
2023-02-11T11:42:30.350Z,7.40
2023-02-11T11:47:35.187Z,8.80
2023-02-11T11:52:42.826Z,7.20
2023-02-11T11:57:47.225Z,8.40
2023-02-11T12:03:23.153Z,9.80
2023-02-11T12:08:30.133Z,8.00
2023-02-11T12:13:47.447Z,8.40
2023-02-11T12:19:03.980Z,8.00
2023-02-11T12:24:12.227Z,9.60
2023-02-11T12:29:20.657Z,8.00
2023-02-11T12:34:30.872Z,8.00
2023-02-11T12:39:38.271Z,9.60
2023-02-11T12:44:49.435Z,7.60
2023-02-11T12:50:01.970Z,8.00
2023-02-11T12:55:09.144Z,7.60
2023-02-11T13:00:18.428Z,7.80
2023-02-11T13:05:24.774Z,8.00
2023-02-11T13:10:30.602Z,8.00
2023-02-11T13:15:34.882Z,6.40
2023-02-11T13:20:41.454Z,7.60
2023-02-11T13:25:46.561Z,8.00
2023-02-11T13:31:01.904Z,7.60
2023-02-11T13:36:18.908Z,7.60
2023-02-11T13:41:24.767Z,7.40
2023-02-11T13:46:29.896Z,7.40
2023-02-11T13:51:37.046Z,8.00
2023-02-11T13:56:40.666Z,8.00
2023-02-11T14:02:20.678Z,8.00
2023-02-11T14:07:45.175Z,7.00
2023-02-11T14:13:06.212Z,17.00
2023-02-11T14:18:54.126Z,68.75
2023-02-11T14:24:40.039Z,131.33
2023-02-11T14:29:44.522Z,125.75
2023-02-11T14:34:54.433Z,72.00
2023-02-11T14:40:03.537Z,71.00
2023-02-11T14:45:08.418Z,72.25
2023-02-11T14:50:17.551Z,63.75
2023-02-11T14:55:29.298Z,63.00
2023-02-11T15:00:32.285Z,62.00
2023-02-11T15:05:35.166Z,60.75
2023-02-11T15:10:42.875Z,61.00
2023-02-11T15:15:46.766Z,58.00
2023-02-11T15:20:50.269Z,59.25
2023-02-11T15:25:56.154Z,57.75
2023-02-11T15:31:00.569Z,56.50
2023-02-11T15:36:03.986Z,53.00
2023-02-11T15:41:08.442Z,53.75
2023-02-11T15:46:11.878Z,52.75
2023-02-11T15:51:20.865Z,52.75
2023-02-11T15:56:26.125Z,47.25
2023-02-11T16:01:33.968Z,47.00
2023-02-11T16:06:39.649Z,48.25
2023-02-11T16:11:58.134Z,47.00
2023-02-11T16:17:03.448Z,45.50
2023-02-11T16:22:09.181Z,46.00
2023-02-11T16:27:21.474Z,43.25
2023-02-11T16:32:25.957Z,43.00
2023-02-11T16:37:28.749Z,43.25
2023-02-11T16:42:33.106Z,43.00
2023-02-11T16:47:35.893Z,45.25
2023-02-11T16:52:38.753Z,41.50
2023-02-11T16:57:42.892Z,42.00
2023-02-11T17:02:45.790Z,43.00
2023-02-11T17:07:48.536Z,41.00
2023-02-11T17:12:53.444Z,41.00
2023-02-11T17:17:56.329Z,41.00
2023-02-11T17:22:59.154Z,41.00
2023-02-11T17:28:03.409Z,40.75
2023-02-11T17:33:06.252Z,41.00
2023-02-11T17:38:09.057Z,40.00
2023-02-11T17:43:13.274Z,40.00
2023-02-11T17:48:16.080Z,38.50
2023-02-11T17:53:19.049Z,38.75
2023-02-11T17:58:23.221Z,39.00
2023-02-11T18:03:26.230Z,39.00
2023-02-11T18:08:28.991Z,39.50
2023-02-11T18:13:33.156Z,38.00
2023-02-11T18:18:35.968Z,38.00
2023-02-11T18:23:38.731Z,37.25
2023-02-11T18:28:45.698Z,36.75
2023-02-11T18:33:48.983Z,36.75
2023-02-11T18:38:53.625Z,35.00
2023-02-11T18:44:02.677Z,36.00
2023-02-11T18:49:05.489Z,35.50
2023-02-11T18:54:08.291Z,36.00
2023-02-11T18:59:12.501Z,34.25
2023-02-11T19:04:19.729Z,34.75
2023-02-11T19:09:22.783Z,34.50
2023-02-11T19:14:28.103Z,33.00
2023-02-11T19:19:32.070Z,32.00
2023-02-11T19:24:34.996Z,32.00
2023-02-11T19:29:39.349Z,31.75
2023-02-11T19:34:42.250Z,31.00
2023-02-11T19:39:45.135Z,32.50
2023-02-11T19:44:49.610Z,31.50
2023-02-11T19:49:52.558Z,28.67
2023-02-11T19:54:55.601Z,30.00
2023-02-11T20:00:01.422Z,30.00
2023-02-11T20:05:04.849Z,28.00
2023-02-11T20:10:09.176Z,28.00
2023-02-11T20:15:13.375Z,28.00
2023-02-11T20:20:18.649Z,27.67
2023-02-11T20:25:21.659Z,26.33
2023-02-11T20:30:26.139Z,27.00
2023-02-11T20:35:29.172Z,26.00
2023-02-11T20:40:32.409Z,25.67
2023-02-11T20:45:38.401Z,25.50
2023-02-11T20:50:41.495Z,24.75
2023-02-11T20:55:44.387Z,23.75
2023-02-11T21:00:48.833Z,25.50
2023-02-11T21:05:52.222Z,24.75
2023-02-11T21:10:55.236Z,24.50
2023-02-11T21:15:59.650Z,24.50
2023-02-11T21:21:03.462Z,22.00
2023-02-11T21:26:07.374Z,22.75
2023-02-11T21:31:18.871Z,22.75
2023-02-11T21:36:22.008Z,22.00
2023-02-11T21:41:25.186Z,21.25
2023-02-11T21:46:29.430Z,23.50
2023-02-11T21:51:32.324Z,21.00
2023-02-11T21:56:36.525Z,22.50
2023-02-11T22:01:40.869Z,20.50
2023-02-11T22:06:43.671Z,21.00
2023-02-11T22:11:46.459Z,19.25
2023-02-11T22:16:50.994Z,20.50
2023-02-11T22:21:54.030Z,19.00
2023-02-11T22:26:56.863Z,18.00
2023-02-11T22:32:01.124Z,18.00
2023-02-11T22:37:04.999Z,19.50
2023-02-11T22:42:08.113Z,17.00
2023-02-11T22:47:12.282Z,18.75
2023-02-11T22:52:15.100Z,18.00
2023-02-11T22:57:17.963Z,17.00
2023-02-11T23:02:22.174Z,17.50
2023-02-11T23:07:25.214Z,15.20
2023-02-11T23:12:28.042Z,17.25
2023-02-11T23:17:32.281Z,16.75
2023-02-11T23:22:35.042Z,16.20
2023-02-11T23:27:37.961Z,15.20
2023-02-11T23:32:42.192Z,17.40
2023-02-11T23:37:45.044Z,17.50
2023-02-11T23:42:49.016Z,16.00
2023-02-11T23:47:53.624Z,15.40
2023-02-11T23:52:56.450Z,15.80
2023-02-11T23:57:59.388Z,17.20
